Time;durP1;ratioP1;P1;durP2;ratioP2;P2;SDS_P1;SDS_P2;PMS_P1;PMS_P2;Temp;Humidity;BMP_temperature;BMP_pressure;BME280_temperature;BME280_humidity;BME280_pressure;Samples;Min_cycle;Max_cycle;Signal;HPM_P1;HPM_P2
2020/12/13 00:00:09;;;;;;;4.20;3.22;;;9.20;99.90;;;;;;5035698;28;20211;-74
2020/12/13 00:02:37;;;;;;;4.43;3.17;;;9.20;99.90;;;;;;5039144;28;20240;-75
2020/12/13 00:05:04;;;;;;;6.55;3.70;;;9.20;99.90;;;;;;5041832;28;20218;-74
2020/12/13 00:07:30;;;;;;;6.50;3.88;;;9.30;99.90;;;;;;5042036;28;20223;-75
2020/12/13 00:09:58;;;;;;;5.03;3.63;;;9.20;99.90;;;;;;5041946;28;20203;-75
2020/12/13 00:12:25;;;;;;;3.92;3.30;;;9.20;99.90;;;;;;5042052;28;20322;-75
2020/12/13 00:14:51;;;;;;;7.28;3.65;;;9.20;99.90;;;;;;5041957;28;20238;-75
2020/12/13 00:17:18;;;;;;;4.15;3.63;;;9.20;99.90;;;;;;5042245;28;20615;-75
2020/12/13 00:19:44;;;;;;;5.95;3.47;;;9.10;99.90;;;;;;5041753;28;20664;-75
2020/12/13 00:22:10;;;;;;;4.93;3.45;;;9.20;99.90;;;;;;5041915;28;20294;-75
2020/12/13 00:24:37;;;;;;;4.18;3.30;;;9.20;99.90;;;;;;5041643;28;20203;-74
2020/12/13 00:27:04;;;;;;;6.55;3.53;;;9.20;99.90;;;;;;5041878;28;20559;-75
2020/12/13 00:29:30;;;;;;;6.32;3.10;;;9.20;99.90;;;;;;5041653;28;20659;-75
2020/12/13 00:31:56;;;;;;;4.95;3.63;;;9.20;99.90;;;;;;5041258;28;20218;-75
2020/12/13 00:34:23;;;;;;;5.53;4.07;;;9.20;99.90;;;;;;5042211;28;20199;-74
2020/12/13 00:36:50;;;;;;;4.57;3.40;;;9.20;99.90;;;;;;5041805;28;20251;-74
2020/12/13 00:39:17;;;;;;;4.25;3.10;;;9.20;99.90;;;;;;5041883;28;20207;-75
2020/12/13 00:41:49;;;;;;;3.67;2.70;;;9.20;99.90;;;;;;5041554;28;20207;-74
2020/12/13 00:44:16;;;;;;;4.25;2.65;;;9.10;99.90;;;;;;5042076;28;20238;-75
2020/12/13 00:46:42;;;;;;;3.85;3.33;;;9.20;99.90;;;;;;5041538;28;20228;-75
2020/12/13 00:49:09;;;;;;;3.22;2.88;;;9.20;99.90;;;;;;5041671;28;20284;-75
2020/12/13 00:51:35;;;;;;;2.70;2.40;;;9.20;99.90;;;;;;5041351;28;20543;-75
2020/12/13 00:54:01;;;;;;;3.60;2.72;;;9.20;99.90;;;;;;5041112;28;20227;-75
2020/12/13 00:56:27;;;;;;;4.35;3.00;;;9.20;99.90;;;;;;5041229;28;20291;-74
2020/12/13 00:58:54;;;;;;;4.25;2.30;;;9.20;99.90;;;;;;5040950;28;20203;-75
2020/12/13 01:01:21;;;;;;;3.25;2.75;;;9.20;99.90;;;;;;5041414;28;20210;-75
2020/12/13 01:03:47;;;;;;;4.00;2.22;;;9.20;99.90;;;;;;5041520;28;20706;-75
2020/12/13 01:06:20;;;;;;;2.60;2.10;;;9.00;99.90;;;;;;5040900;28;20224;-74
2020/12/13 01:08:47;;;;;;;3.58;2.42;;;9.00;99.90;;;;;;5041286;28;20200;-75
2020/12/13 01:11:13;;;;;;;3.03;2.72;;;9.10;99.90;;;;;;5041565;28;20210;-74
2020/12/13 01:13:39;;;;;;;3.05;2.75;;;9.10;99.90;;;;;;5038547;28;20310;-75
2020/12/13 01:16:05;;;;;;;4.53;2.67;;;9.10;99.90;;;;;;5038170;28;20569;-74
2020/12/13 01:18:33;;;;;;;2.85;2.15;;;9.10;99.90;;;;;;5038497;28;20292;-75
2020/12/13 01:20:59;;;;;;;3.95;2.70;;;9.10;99.90;;;;;;5038596;28;20207;-75
2020/12/13 01:23:25;;;;;;;4.10;3.65;;;9.00;99.90;;;;;;5038709;28;20232;-75
2020/12/13 01:25:51;;;;;;;3.15;2.78;;;8.90;99.90;;;;;;5038255;28;20216;-74
2020/12/13 01:28:18;;;;;;;4.97;2.58;;;9.00;99.90;;;;;;5038059;28;20209;-75
2020/12/13 01:30:44;;;;;;;3.80;2.60;;;8.90;99.90;;;;;;5037823;28;20303;-75
2020/12/13 01:33:10;;;;;;;3.13;2.15;;;9.00;99.90;;;;;;5036942;28;20224;-75
2020/12/13 01:35:39;;;;;;;3.10;2.50;;;9.00;99.90;;;;;;5036413;28;20210;-74
2020/12/13 01:38:05;;;;;;;3.22;2.70;;;9.00;99.90;;;;;;5036732;28;20231;-75
2020/12/13 01:40:32;;;;;;;2.78;2.17;;;8.90;99.90;;;;;;5036416;28;20679;-75
2020/12/13 01:42:58;;;;;;;4.57;2.67;;;8.90;99.90;;;;;;5036312;28;20220;-75
2020/12/13 01:45:24;;;;;;;3.13;2.60;;;8.90;99.90;;;;;;5036580;28;20647;-74
2020/12/13 01:47:51;;;;;;;2.75;2.40;;;8.90;99.90;;;;;;5036513;28;20227;-74
2020/12/13 01:50:29;;;;;;;3.92;2.47;;;8.90;99.90;;;;;;5037078;28;20259;-75
2020/12/13 01:53:14;;;;;;;2.72;2.47;;;8.90;99.90;;;;;;5036606;28;20277;-74
2020/12/13 01:55:41;;;;;;;3.83;2.63;;;8.90;99.90;;;;;;5036089;28;20558;-74
2020/12/13 01:58:13;;;;;;;3.40;3.00;;;9.00;99.90;;;;;;5036415;28;20562;-75
2020/12/13 02:00:43;;;;;;;4.38;2.90;;;9.00;99.90;;;;;;5036404;28;20266;-75
2020/12/13 02:03:11;;;;;;;3.03;2.30;;;9.00;99.90;;;;;;5035935;28;20240;-75
2020/12/13 02:05:38;;;;;;;3.58;2.47;;;8.90;99.90;;;;;;5036293;28;20208;-74
2020/12/13 02:08:06;;;;;;;3.38;2.25;;;8.80;99.90;;;;;;5035963;28;20199;-75
2020/12/13 02:10:34;;;;;;;4.95;2.65;;;8.90;99.90;;;;;;5036164;28;20204;-75
2020/12/13 02:13:00;;;;;;;2.53;2.28;;;8.90;99.90;;;;;;5035994;28;20224;-75
2020/12/13 02:15:27;;;;;;;2.15;1.83;;;8.90;99.90;;;;;;5035833;28;20204;-74
2020/12/13 02:17:55;;;;;;;3.33;2.20;;;9.00;99.90;;;;;;5035599;28;20204;-75
2020/12/13 02:20:22;;;;;;;4.80;2.35;;;9.00;99.90;;;;;;5036042;28;20211;-75
2020/12/13 02:22:50;;;;;;;2.35;1.70;;;9.00;99.90;;;;;;5035958;28;20232;-74
2020/12/13 02:25:18;;;;;;;2.92;2.10;;;9.00;99.90;;;;;;5035482;28;20206;-75
2020/12/13 02:27:45;;;;;;;2.50;1.90;;;9.00;99.90;;;;;;5035804;28;20235;-75
2020/12/13 02:30:12;;;;;;;2.35;2.00;;;8.90;99.90;;;;;;5035901;28;20206;-74
2020/12/13 02:32:39;;;;;;;4.15;2.42;;;8.90;99.90;;;;;;5036031;28;20326;-75
2020/12/13 02:35:07;;;;;;;2.67;1.95;;;8.90;99.90;;;;;;5036620;28;20571;-74
2020/12/13 02:37:34;;;;;;;3.03;2.00;;;8.90;99.90;;;;;;5037050;28;20196;-75
2020/12/13 02:40:01;;;;;;;2.40;1.90;;;8.90;99.90;;;;;;5037463;28;20230;-74
2020/12/13 02:42:27;;;;;;;2.30;2.10;;;8.80;99.90;;;;;;5036965;28;20224;-75
2020/12/13 02:44:54;;;;;;;4.28;2.50;;;8.90;99.90;;;;;;5036962;28;20291;-74
2020/12/13 02:47:20;;;;;;;3.78;2.28;;;8.90;99.90;;;;;;5036947;28;20234;-75
2020/12/13 02:49:46;;;;;;;4.90;2.50;;;9.00;99.90;;;;;;5037269;28;20295;-75
2020/12/13 02:52:16;;;;;;;4.65;2.40;;;9.00;99.90;;;;;;5037299;28;20295;-75
2020/12/13 02:54:43;;;;;;;2.63;2.20;;;9.10;99.90;;;;;;5037082;28;20210;-74
2020/12/13 02:57:10;;;;;;;2.30;2.10;;;9.10;99.90;;;;;;5037279;28;20196;-75
2020/12/13 02:59:36;;;;;;;3.10;2.33;;;9.10;99.90;;;;;;5036815;28;20210;-74
2020/12/13 03:02:03;;;;;;;2.03;1.85;;;9.10;99.90;;;;;;5036827;28;20267;-74
2020/12/13 03:04:29;;;;;;;3.05;2.03;;;9.00;99.90;;;;;;5036465;28;20212;-75
2020/12/13 03:06:55;;;;;;;1.75;1.65;;;9.00;99.90;;;;;;5036683;28;20228;-75
2020/12/13 03:09:22;;;;;;;3.45;1.77;;;9.00;99.90;;;;;;5036612;28;20192;-74
2020/12/13 03:11:48;;;;;;;3.08;1.70;;;9.00;99.90;;;;;;5036593;28;20295;-74
2020/12/13 03:14:15;;;;;;;3.08;2.08;;;9.10;99.90;;;;;;5036091;28;20228;-75
2020/12/13 03:16:42;;;;;;;2.67;2.35;;;9.10;99.90;;;;;;5036295;28;20674;-74
2020/12/13 03:19:08;;;;;;;1.90;1.70;;;9.10;99.90;;;;;;5036430;28;20212;-75
2020/12/13 03:21:34;;;;;;;2.25;1.95;;;9.00;99.90;;;;;;5036873;28;20214;-75
2020/12/13 03:24:00;;;;;;;2.25;1.70;;;8.90;99.90;;;;;;5036606;28;20254;-75
2020/12/13 03:26:27;;;;;;;3.00;2.10;;;8.70;99.90;;;;;;5036238;28;20690;-74
2020/12/13 03:28:53;;;;;;;4.63;2.60;;;8.40;99.90;;;;;;5036455;28;20227;-75
2020/12/13 03:31:20;;;;;;;3.38;2.55;;;8.20;99.90;;;;;;5037120;28;20577;-74
2020/12/13 03:33:47;;;;;;;4.18;2.53;;;8.20;99.90;;;;;;5035444;28;20315;-74
2020/12/13 03:36:13;;;;;;;5.43;2.85;;;8.20;99.90;;;;;;5035210;28;20200;-75
2020/12/13 03:38:40;;;;;;;3.95;2.63;;;8.20;99.90;;;;;;5035471;28;20211;-74
2020/12/13 03:41:06;;;;;;;2.85;2.40;;;8.10;99.90;;;;;;5035164;28;20280;-75
2020/12/13 03:43:33;;;;;;;2.83;2.35;;;8.20;99.90;;;;;;5035414;28;20230;-74
2020/12/13 03:45:59;;;;;;;4.72;2.28;;;8.30;99.90;;;;;;5035325;28;20206;-74
2020/12/13 03:48:26;;;;;;;3.20;1.95;;;8.40;99.90;;;;;;5035078;28;20623;-75
2020/12/13 03:50:52;;;;;;;2.05;1.60;;;8.40;99.90;;;;;;5034956;28;20551;-75
2020/12/13 03:53:19;;;;;;;2.58;1.73;;;8.50;99.90;;;;;;5034457;28;20227;-74
2020/12/13 03:55:45;;;;;;;2.65;2.40;;;8.50;99.90;;;;;;5035085;28;20212;-74
2020/12/13 03:58:11;;;;;;;2.28;1.45;;;8.50;99.90;;;;;;5035168;28;20294;-75
2020/12/13 04:00:38;;;;;;;2.80;2.10;;;8.60;99.90;;;;;;5035752;28;20291;-74
2020/12/13 04:03:05;;;;;;;2.10;1.67;;;8.60;99.90;;;;;;5035661;28;20232;-74
2020/12/13 04:05:33;;;;;;;3.72;2.20;;;8.70;99.90;;;;;;5035145;28;20200;-74
2020/12/13 04:07:59;;;;;;;2.63;1.80;;;8.80;99.90;;;;;;5035783;28;20230;-75
2020/12/13 04:10:26;;;;;;;6.32;3.92;;;8.80;99.90;;;;;;5035409;28;20291;-75
2020/12/13 04:12:52;;;;;;;2.60;1.75;;;8.80;99.90;;;;;;5035067;28;20587;-74
2020/12/13 04:15:19;;;;;;;5.00;2.50;;;8.90;99.90;;;;;;5035060;28;20210;-74
2020/12/13 04:17:45;;;;;;;4.90;2.70;;;8.90;99.90;;;;;;5035274;28;20535;-75
2020/12/13 04:20:12;;;;;;;2.92;2.08;;;8.90;99.90;;;;;;5035077;28;20204;-75
2020/12/13 04:22:39;;;;;;;2.08;1.50;;;8.90;99.90;;;;;;5035103;28;20224;-75
2020/12/13 04:25:06;;;;;;;1.88;1.77;;;8.90;99.90;;;;;;5034797;28;20204;-75
2020/12/13 04:27:33;;;;;;;1.83;1.20;;;8.80;99.90;;;;;;5035243;28;20582;-75
2020/12/13 04:29:59;;;;;;;1.98;1.50;;;8.90;99.90;;;;;;5034839;28;20205;-74
2020/12/13 04:32:25;;;;;;;2.38;1.95;;;8.80;99.90;;;;;;5034150;28;20228;-74
2020/12/13 04:34:52;;;;;;;1.73;1.60;;;8.70;99.90;;;;;;5034284;28;20666;-74
2020/12/13 04:37:23;;;;;;;2.65;1.90;;;8.70;99.90;;;;;;5034716;28;20287;-74
2020/12/13 04:39:51;;;;;;;2.47;1.75;;;8.70;99.90;;;;;;5034624;28;20708;-75
2020/12/13 04:42:18;;;;;;;2.20;1.20;;;8.70;99.90;;;;;;5034840;28;20600;-75
2020/12/13 04:44:45;;;;;;;3.95;1.48;;;8.60;99.90;;;;;;5034652;28;20295;-74
2020/12/13 04:47:17;;;;;;;1.60;1.38;;;8.80;99.90;;;;;;5034766;28;20704;-75
2020/12/13 04:49:46;;;;;;;2.50;1.65;;;8.80;99.90;;;;;;5038483;28;20686;-75
2020/12/13 04:52:13;;;;;;;1.95;1.70;;;8.80;99.90;;;;;;5038202;28;20659;-74
2020/12/13 04:54:48;;;;;;;2.45;1.88;;;8.80;99.90;;;;;;5036910;28;20210;-74
2020/12/13 04:57:15;;;;;;;2.30;2.10;;;8.90;99.90;;;;;;5036978;28;20196;-74
2020/12/13 04:59:41;;;;;;;5.03;2.10;;;8.90;99.90;;;;;;5037008;28;20210;-74
2020/12/13 05:02:11;;;;;;;3.17;2.17;;;8.90;99.90;;;;;;5036773;28;20235;-74
2020/12/13 05:04:37;;;;;;;2.45;1.90;;;8.90;99.90;;;;;;5036731;28;20200;-74
2020/12/13 05:07:03;;;;;;;2.70;1.50;;;8.90;99.90;;;;;;5036497;28;20690;-74
2020/12/13 05:09:30;;;;;;;2.42;1.50;;;9.00;99.90;;;;;;5036898;28;20200;-74
2020/12/13 05:11:56;;;;;;;1.50;1.40;;;9.10;99.90;;;;;;5036770;28;20231;-74
2020/12/13 05:14:23;;;;;;;2.58;1.73;;;9.10;99.90;;;;;;5036651;28;20596;-74
2020/12/13 05:16:49;;;;;;;1.98;1.67;;;9.00;99.90;;;;;;5036259;28;20200;-74
2020/12/13 05:19:16;;;;;;;2.75;1.75;;;9.10;99.90;;;;;;5036710;28;20200;-74
2020/12/13 05:21:44;;;;;;;3.67;2.25;;;9.10;99.90;;;;;;5036771;28;20226;-74
2020/12/13 05:24:11;;;;;;;2.25;1.80;;;9.10;99.90;;;;;;5036373;28;20702;-74
2020/12/13 05:26:37;;;;;;;2.30;1.70;;;9.10;99.90;;;;;;5036618;28;20227;-74
2020/12/13 05:29:05;;;;;;;2.78;1.73;;;9.20;99.90;;;;;;5036622;28;20216;-74
2020/12/13 05:31:39;;;;;;;2.90;2.15;;;9.10;99.90;;;;;;5036521;28;20583;-74
2020/12/13 05:34:15;;;;;;;2.33;1.85;;;9.10;99.90;;;;;;5036187;28;20294;-74
2020/12/13 05:36:43;;;;;;;2.40;2.00;;;9.20;99.90;;;;;;5036366;28;20215;-74
2020/12/13 05:39:09;;;;;;;2.60;1.90;;;9.20;99.90;;;;;;5036343;28;20254;-75
2020/12/13 05:41:37;;;;;;;2.10;1.95;;;9.10;99.90;;;;;;5036267;28;20299;-74
2020/12/13 05:44:16;;;;;;;1.38;1.27;;;9.20;99.90;;;;;;5036394;28;20225;-74
2020/12/13 05:46:56;;;;;;;1.50;1.40;;;9.20;99.90;;;;;;5035803;28;20224;-74
2020/12/13 05:52:04;;;;;;;4.75;2.00;;;9.20;99.90;;;;;;5013459;28;20290;-75
2020/12/13 05:54:30;;;;;;;2.92;1.83;;;9.20;99.90;;;;;;5036036;28;20208;-74
2020/12/13 05:56:58;;;;;;;1.60;1.10;;;9.30;99.90;;;;;;5037165;28;20565;-75
2020/12/13 05:59:26;;;;;;;1.50;1.40;;;9.30;99.90;;;;;;5036906;28;20212;-74
2020/12/13 06:01:54;;;;;;;1.70;1.23;;;9.20;99.90;;;;;;5036961;28;20300;-74
2020/12/13 06:04:26;;;;;;;2.17;1.30;;;9.20;99.90;;;;;;5037303;28;20231;-74
2020/12/13 06:06:56;;;;;;;1.35;1.20;;;9.20;99.90;;;;;;5035927;28;20264;-74
2020/12/13 06:09:32;;;;;;;1.40;1.30;;;9.30;99.90;;;;;;5038270;28;20207;-74
2020/12/13 06:12:02;;;;;;;2.17;1.50;;;9.30;99.90;;;;;;5036546;28;20212;-74
2020/12/13 06:14:28;;;;;;;1.67;1.02;;;9.30;99.90;;;;;;5038509;28;20214;-75
2020/12/13 06:16:57;;;;;;;2.40;1.05;;;9.30;99.90;;;;;;5037533;28;20291;-74
2020/12/13 06:19:25;;;;;;;1.48;1.35;;;9.30;99.90;;;;;;5037887;28;20269;-75
2020/12/13 06:21:55;;;;;;;1.65;1.17;;;9.30;99.90;;;;;;5039934;28;20272;-74
2020/12/13 06:24:21;;;;;;;6.80;4.43;;;9.30;99.90;;;;;;5038006;28;20230;-74
2020/12/13 06:26:48;;;;;;;2.25;1.40;;;9.30;99.90;;;;;;5036939;28;20220;-74
2020/12/13 06:29:15;;;;;;;1.50;1.20;;;9.30;99.90;;;;;;5036657;28;20582;-75
2020/12/13 06:31:42;;;;;;;1.85;1.38;;;9.30;99.90;;;;;;5036501;28;20216;-75
2020/12/13 06:34:09;;;;;;;1.98;1.33;;;9.30;99.90;;;;;;5035926;28;20220;-75
2020/12/13 06:36:37;;;;;;;2.38;1.88;;;9.20;99.90;;;;;;5034973;28;20670;-74
2020/12/13 06:39:07;;;;;;;2.85;1.45;;;9.20;99.90;;;;;;5035305;28;20208;-74
2020/12/13 06:41:35;;;;;;;1.40;1.27;;;9.20;99.90;;;;;;5035381;28;20203;-74
2020/12/13 06:44:06;;;;;;;1.08;1.00;;;9.20;99.90;;;;;;5035304;28;20646;-75
2020/12/13 06:46:32;;;;;;;2.25;1.35;;;9.30;99.90;;;;;;5035143;28;20214;-74
2020/12/13 06:48:59;;;;;;;1.30;1.20;;;9.20;99.90;;;;;;5035425;28;20196;-74
2020/12/13 06:51:30;;;;;;;3.20;1.60;;;9.20;99.90;;;;;;5035152;28;20715;-75
2020/12/13 06:53:57;;;;;;;1.40;1.30;;;9.20;99.90;;;;;;5034911;28;20228;-75
2020/12/13 06:56:24;;;;;;;1.90;1.00;;;9.20;99.90;;;;;;5035031;28;20208;-74
2020/12/13 06:58:58;;;;;;;1.27;1.08;;;9.20;99.90;;;;;;5035535;28;20204;-74
2020/12/13 07:01:27;;;;;;;1.23;1.13;;;9.20;99.90;;;;;;5035393;28;20611;-74
2020/12/13 07:03:54;;;;;;;1.70;1.60;;;9.20;99.90;;;;;;5034924;28;20231;-74
2020/12/13 07:06:23;;;;;;;3.28;1.70;;;9.20;99.90;;;;;;5034746;28;20203;-74
2020/12/13 07:09:01;;;;;;;1.08;1.00;;;9.20;99.90;;;;;;5034806;28;20680;-74
2020/12/13 07:11:29;;;;;;;1.40;1.30;;;9.20;99.90;;;;;;5034436;28;20207;-74
2020/12/13 07:14:05;;;;;;;2.38;1.10;;;9.30;99.90;;;;;;5034816;28;20721;-74
2020/12/13 07:16:35;;;;;;;1.17;1.08;;;9.30;99.90;;;;;;5034914;28;20210;-74
2020/12/13 07:19:06;;;;;;;1.65;1.20;;;9.20;99.90;;;;;;5035095;28;20326;-74
2020/12/13 07:21:33;;;;;;;0.93;0.70;;;9.20;99.90;;;;;;5035095;28;20722;-74
2020/12/13 07:24:00;;;;;;;1.45;0.90;;;9.20;99.90;;;;;;5035104;28;20336;-74
2020/12/13 07:26:29;;;;;;;1.00;1.00;;;9.20;99.90;;;;;;5034191;28;20291;-74
2020/12/13 07:28:56;;;;;;;1.40;1.20;;;9.20;99.90;;;;;;5035415;28;20208;-74
2020/12/13 07:31:24;;;;;;;2.00;1.23;;;9.20;99.90;;;;;;5035490;28;20222;-74
2020/12/13 07:33:51;;;;;;;2.42;1.65;;;9.20;99.90;;;;;;5035756;28;20224;-74
2020/12/13 07:36:17;;;;;;;14.38;5.68;;;9.20;99.90;;;;;;5035558;28;20208;-74
2020/12/13 07:38:44;;;;;;;15.02;6.60;;;9.30;99.90;;;;;;5035542;28;20210;-74
2020/12/13 07:41:19;;;;;;;4.45;2.88;;;9.20;99.90;;;;;;5035520;28;20750;-74
2020/12/13 07:43:57;;;;;;;14.82;6.13;;;9.20;99.90;;;;;;5035390;28;20226;-74
2020/12/13 07:46:23;;;;;;;13.05;6.90;;;9.30;99.90;;;;;;5035009;28;20199;-74
2020/12/13 07:49:04;;;;;;;4.43;2.25;;;9.20;99.90;;;;;;5035398;28;20200;-74
2020/12/13 07:51:31;;;;;;;3.40;2.28;;;9.20;99.90;;;;;;5035568;28;20188;-75
2020/12/13 07:54:11;;;;;;;2.15;1.42;;;9.20;99.90;;;;;;5035293;28;20228;-75
2020/12/13 07:56:39;;;;;;;0.90;0.90;;;9.20;99.90;;;;;;5035711;28;20204;-74
2020/12/13 07:59:09;;;;;;;1.77;1.40;;;9.20;99.90;;;;;;5035854;28;20398;-74
2020/12/13 08:01:36;;;;;;;2.00;1.33;;;9.10;99.90;;;;;;5036064;28;20263;-74
2020/12/13 08:04:02;;;;;;;1.63;1.25;;;9.10;99.90;;;;;;5035676;28;20224;-74
2020/12/13 08:06:29;;;;;;;1.20;1.20;;;9.10;99.90;;;;;;5035132;28;20215;-74
2020/12/13 08:08:55;;;;;;;2.45;1.80;;;9.10;99.90;;;;;;5035661;28;20230;-75
2020/12/13 08:11:22;;;;;;;3.15;2.15;;;9.10;99.90;;;;;;5035384;28;20208;-75
2020/12/13 08:13:51;;;;;;;1.10;1.00;;;9.00;99.90;;;;;;5035726;28;20299;-75
2020/12/13 08:16:17;;;;;;;1.77;1.27;;;9.00;99.90;;;;;;5035531;28;20666;-74
2020/12/13 08:18:46;;;;;;;1.75;1.00;;;9.00;99.90;;;;;;5035205;28;20231;-74
2020/12/13 08:21:18;;;;;;;1.42;1.33;;;8.90;99.90;;;;;;5035054;28;20287;-75
2020/12/13 08:23:48;;;;;;;1.50;1.23;;;8.90;99.90;;;;;;5037139;28;20717;-74
2020/12/13 08:26:16;;;;;;;1.58;1.40;;;8.90;99.90;;;;;;5039186;28;20678;-74
2020/12/13 08:28:48;;;;;;;1.38;1.00;;;8.90;99.90;;;;;;5038852;28;20231;-74
2020/12/13 08:31:18;;;;;;;1.58;1.20;;;8.90;99.90;;;;;;5038894;28;20216;-74
2020/12/13 08:33:44;;;;;;;4.80;2.15;;;8.90;99.90;;;;;;5038790;28;20318;-74
2020/12/13 08:36:21;;;;;;;3.25;2.13;;;8.80;99.90;;;;;;5038472;28;20200;-74
2020/12/13 08:39:09;;;;;;;1.45;1.30;;;8.80;99.90;;;;;;5038591;28;20207;-74
2020/12/13 08:41:36;;;;;;;4.00;3.00;;;8.90;99.90;;;;;;5038524;28;20212;-74
2020/12/13 08:44:03;;;;;;;6.55;3.40;;;8.90;99.90;;;;;;5038775;28;20224;-74
2020/12/13 08:46:37;;;;;;;7.88;4.55;;;8.90;99.90;;;;;;5038342;28;20663;-74
2020/12/13 08:49:04;;;;;;;3.80;2.45;;;8.90;99.90;;;;;;5038602;28;20211;-74
2020/12/13 08:51:30;;;;;;;2.72;1.98;;;9.00;99.90;;;;;;5037948;28;20314;-74
2020/12/13 08:53:58;;;;;;;2.08;1.80;;;9.00;99.90;;;;;;5037507;28;20220;-74
2020/12/13 08:56:35;;;;;;;1.23;1.08;;;9.10;99.90;;;;;;5037304;28;20204;-74
2020/12/13 08:59:02;;;;;;;2.00;1.70;;;9.10;99.90;;;;;;5037480;28;20203;-74
2020/12/13 09:01:31;;;;;;;2.08;1.63;;;9.20;99.90;;;;;;5037387;28;20200;-75
2020/12/13 09:03:58;;;;;;;2.08;1.58;;;9.20;99.90;;;;;;5037308;28;20659;-74
2020/12/13 09:06:25;;;;;;;1.92;1.40;;;9.30;99.90;;;;;;5036557;28;20736;-74
2020/12/13 09:08:52;;;;;;;13.02;6.10;;;9.30;99.90;;;;;;5036966;28;20228;-74
2020/12/13 09:11:29;;;;;;;2.50;1.63;;;9.40;99.90;;;;;;5037226;28;20235;-74
2020/12/13 09:13:55;;;;;;;2.08;1.63;;;9.50;99.90;;;;;;5037061;28;20229;-75
2020/12/13 09:16:29;;;;;;;1.73;1.58;;;9.50;99.90;;;;;;5036804;28;20211;-74
2020/12/13 09:19:06;;;;;;;2.42;1.80;;;9.60;99.90;;;;;;5036787;28;20780;-75
2020/12/13 09:21:47;;;;;;;1.60;1.50;;;9.60;99.90;;;;;;5036742;28;20709;-74
2020/12/13 09:24:14;;;;;;;1.90;1.52;;;9.60;99.90;;;;;;5037008;28;20314;-75
2020/12/13 09:26:40;;;;;;;1.75;1.65;;;9.70;99.90;;;;;;5036345;28;20294;-74
2020/12/13 09:29:07;;;;;;;1.98;1.50;;;9.70;99.90;;;;;;5036610;28;20204;-74
2020/12/13 09:31:33;;;;;;;1.67;1.58;;;9.70;99.90;;;;;;5036290;28;20219;-74
2020/12/13 09:33:59;;;;;;;2.75;1.65;;;9.80;99.90;;;;;;5036084;28;20228;-74
2020/12/13 09:36:27;;;;;;;2.88;1.80;;;9.70;99.90;;;;;;5035436;28;20204;-74
2020/12/13 09:38:53;;;;;;;2.88;2.08;;;9.70;99.90;;;;;;5036959;28;20222;-74
2020/12/13 09:41:21;;;;;;;2.40;2.20;;;9.60;99.90;;;;;;5036323;28;20204;-74
2020/12/13 09:43:48;;;;;;;2.20;1.80;;;9.60;99.90;;;;;;5036133;28;20311;-74
2020/12/13 09:46:18;;;;;;;2.88;2.00;;;9.50;99.90;;;;;;5036098;28;20204;-74
2020/12/13 09:48:45;;;;;;;3.22;1.90;;;9.50;99.90;;;;;;5036069;28;20686;-74
2020/12/13 09:51:17;;;;;;;3.65;2.30;;;9.50;99.90;;;;;;5036153;28;20200;-74
2020/12/13 09:53:44;;;;;;;3.50;2.85;;;9.70;99.90;;;;;;5036259;28;20227;-74
2020/12/13 09:56:11;;;;;;;9.65;4.85;;;9.70;99.90;;;;;;5035627;28;20215;-74
2020/12/13 09:58:37;;;;;;;7.35;4.97;;;9.80;99.90;;;;;;5035888;28;20292;-74
2020/12/13 10:01:03;;;;;;;5.95;3.10;;;9.90;99.90;;;;;;5036126;28;20556;-74
2020/12/13 10:03:30;;;;;;;6.03;3.05;;;9.90;99.90;;;;;;5035660;28;20220;-74
2020/12/13 10:06:08;;;;;;;5.00;3.05;;;10.00;99.90;;;;;;5035817;28;20254;-74
2020/12/13 10:11:20;;;;;;;3.38;2.30;;;10.20;99.90;;;;;;5036297;28;20602;-74
2020/12/13 10:13:46;;;;;;;4.18;2.35;;;10.20;99.90;;;;;;5035927;28;20385;-74
2020/12/13 10:16:14;;;;;;;2.60;2.05;;;10.20;99.90;;;;;;5035580;28;20688;-74
2020/12/13 10:18:40;;;;;;;5.70;2.50;;;10.30;99.90;;;;;;5035557;28;20204;-74
2020/12/13 10:21:06;;;;;;;3.15;2.15;;;10.30;99.90;;;;;;5035558;28;20200;-74
2020/12/13 10:23:33;;;;;;;3.72;2.13;;;10.40;99.90;;;;;;5035425;28;20590;-74
2020/12/13 10:25:59;;;;;;;2.45;2.25;;;10.40;99.90;;;;;;5035387;28;20207;-74
2020/12/13 10:28:26;;;;;;;3.30;2.30;;;10.30;99.90;;;;;;5035318;28;20257;-74
2020/12/13 10:30:53;;;;;;;2.50;1.98;;;10.20;99.90;;;;;;5035107;28;20216;-74
2020/12/13 10:33:19;;;;;;;4.07;2.78;;;10.20;99.90;;;;;;5034903;28;20228;-74
2020/12/13 10:35:45;;;;;;;4.05;2.30;;;10.20;99.90;;;;;;5035135;28;20204;-74
2020/12/13 10:38:12;;;;;;;3.42;2.10;;;10.20;99.90;;;;;;5035196;28;20306;-74
2020/12/13 10:40:39;;;;;;;2.97;1.90;;;10.30;99.90;;;;;;5034951;28;20208;-74
2020/12/13 10:43:05;;;;;;;7.70;4.68;;;10.10;99.90;;;;;;5035135;28;20232;-74
2020/12/13 10:45:33;;;;;;;4.47;2.65;;;10.20;99.90;;;;;;5034485;28;20669;-74
2020/12/13 10:47:59;;;;;;;3.28;1.55;;;10.30;99.90;;;;;;5034881;28;20654;-74
2020/12/13 10:50:26;;;;;;;2.40;1.30;;;10.30;99.90;;;;;;5034995;28;20258;-74
2020/12/13 10:52:53;;;;;;;1.75;1.58;;;10.40;99.90;;;;;;5034533;28;20310;-74
2020/12/13 10:55:21;;;;;;;2.90;1.40;;;10.40;99.90;;;;;;5034465;28;20204;-73
2020/12/13 10:57:47;;;;;;;3.10;1.90;;;10.40;99.90;;;;;;5034411;28;20235;-74
2020/12/13 11:00:14;;;;;;;1.65;1.38;;;10.50;99.90;;;;;;5034668;28;20287;-73
2020/12/13 11:02:42;;;;;;;1.33;1.13;;;10.50;99.90;;;;;;5034360;28;20727;-74
2020/12/13 11:05:08;;;;;;;1.25;1.15;;;10.40;99.90;;;;;;5034540;28;20208;-74
2020/12/13 11:07:34;;;;;;;1.00;0.88;;;10.50;99.90;;;;;;5034516;28;20315;-74
2020/12/13 11:10:01;;;;;;;0.98;0.82;;;10.50;99.90;;;;;;5034649;28;20214;-74
2020/12/13 11:12:27;;;;;;;1.13;0.90;;;10.50;99.90;;;;;;5034498;28;20255;-74
2020/12/13 11:14:53;;;;;;;1.00;0.63;;;10.40;99.90;;;;;;5034410;28;20623;-74
2020/12/13 11:17:20;;;;;;;1.63;1.10;;;10.40;99.90;;;;;;5034382;28;20203;-74
2020/12/13 11:19:47;;;;;;;1.27;1.00;;;10.40;99.90;;;;;;5034538;28;20540;-74
2020/12/13 11:22:13;;;;;;;1.38;1.02;;;10.30;99.90;;;;;;5034870;28;20737;-75
2020/12/13 11:24:39;;;;;;;3.58;1.13;;;10.10;99.90;;;;;;5034975;28;20295;-74
2020/12/13 11:27:07;;;;;;;1.20;1.10;;;10.10;99.90;;;;;;5035398;28;20212;-74
2020/12/13 11:29:34;;;;;;;1.42;1.23;;;10.10;99.90;;;;;;5034946;28;20228;-74
2020/12/13 11:32:00;;;;;;;2.15;1.38;;;10.10;99.90;;;;;;5034292;28;20216;-74
2020/12/13 11:34:27;;;;;;;1.73;1.20;;;10.20;99.90;;;;;;5034887;28;20627;-74
2020/12/13 11:36:54;;;;;;;1.33;1.23;;;10.20;99.90;;;;;;5034734;28;20200;-74
2020/12/13 11:39:20;;;;;;;1.40;1.30;;;10.00;99.90;;;;;;5034821;28;20682;-75
2020/12/13 11:41:46;;;;;;;2.22;1.40;;;9.90;99.90;;;;;;5035112;28;20206;-74
2020/12/13 11:44:13;;;;;;;2.05;1.63;;;9.90;99.90;;;;;;5034686;28;20216;-74
2020/12/13 11:46:39;;;;;;;1.52;1.30;;;9.90;99.90;;;;;;5034520;28;20199;-74
2020/12/13 11:49:05;;;;;;;1.52;1.25;;;9.80;99.90;;;;;;5034762;28;20318;-74
2020/12/13 11:51:32;;;;;;;1.77;1.55;;;9.90;99.90;;;;;;5034817;28;20295;-74
2020/12/13 11:53:59;;;;;;;1.40;1.30;;;9.90;99.90;;;;;;5034504;28;20224;-75
2020/12/13 11:56:25;;;;;;;1.65;1.55;;;10.00;99.90;;;;;;5034291;28;20214;-74
2020/12/13 11:58:51;;;;;;;1.60;1.50;;;10.00;99.90;;;;;;5033794;28;20230;-74
2020/12/13 12:01:19;;;;;;;2.38;1.40;;;9.90;99.90;;;;;;5033910;28;20204;-74
2020/12/13 12:03:46;;;;;;;1.45;1.35;;;9.80;99.90;;;;;;5034611;28;20699;-74
2020/12/13 12:06:14;;;;;;;1.55;1.05;;;9.90;99.90;;;;;;5034578;28;20207;-74
2020/12/13 12:08:42;;;;;;;2.55;1.20;;;9.80;99.90;;;;;;5034657;28;20227;-74
2020/12/13 12:11:10;;;;;;;1.30;1.10;;;9.80;99.90;;;;;;5034473;28;20200;-75
2020/12/13 12:13:36;;;;;;;2.95;2.35;;;9.90;99.90;;;;;;5034079;28;20596;-74
2020/12/13 12:16:02;;;;;;;2.88;1.58;;;10.00;99.90;;;;;;5034242;28;20199;-74
2020/12/13 12:18:29;;;;;;;3.00;2.00;;;10.00;99.90;;;;;;5034420;28;20203;-74
2020/12/13 12:20:56;;;;;;;1.70;1.20;;;10.10;99.90;;;;;;5034427;28;20603;-74
2020/12/13 12:23:22;;;;;;;1.73;1.20;;;10.10;99.90;;;;;;5034267;28;20259;-74
2020/12/13 12:25:51;;;;;;;1.50;1.20;;;10.10;99.90;;;;;;5034423;28;20286;-74
2020/12/13 12:28:18;;;;;;;1.20;1.10;;;10.00;99.90;;;;;;5034279;28;20228;-75
2020/12/13 12:30:45;;;;;;;1.83;1.20;;;10.00;99.90;;;;;;5034311;28;20302;-75
2020/12/13 12:33:11;;;;;;;1.00;1.00;;;9.90;99.90;;;;;;5034108;28;20699;-74
2020/12/13 12:35:37;;;;;;;1.50;1.30;;;9.90;99.90;;;;;;5034265;28;20662;-74
2020/12/13 12:38:04;;;;;;;2.85;1.95;;;10.00;99.90;;;;;;5034772;28;20207;-75
2020/12/13 12:40:30;;;;;;;1.45;1.35;;;10.00;99.90;;;;;;5034686;28;20208;-74
2020/12/13 12:42:57;;;;;;;1.63;1.30;;;10.00;99.90;;;;;;5034454;28;20311;-74
2020/12/13 12:45:24;;;;;;;1.10;1.00;;;10.10;99.90;;;;;;5034495;28;20204;-74
2020/12/13 12:47:51;;;;;;;1.80;1.15;;;10.10;99.90;;;;;;5034404;28;20232;-74
2020/12/13 12:50:18;;;;;;;1.60;1.15;;;10.00;99.90;;;;;;5034603;28;20294;-74
2020/12/13 12:52:44;;;;;;;1.33;1.05;;;10.10;99.90;;;;;;5034485;28;20228;-74
2020/12/13 12:55:11;;;;;;;1.83;1.00;;;10.10;99.90;;;;;;5034455;28;20204;-74
2020/12/13 12:57:37;;;;;;;1.27;1.08;;;10.10;99.90;;;;;;5034326;28;20211;-74
2020/12/13 13:02:52;;;;;;;1.58;1.40;;;10.10;99.90;;;;;;5034555;28;20222;-74
2020/12/13 13:05:24;;;;;;;3.15;1.35;;;10.10;99.90;;;;;;5034841;28;20235;-74